Search for airport 
image banner adimage banner ad
image banner ad

LEMU - Muchamiel

Located in Muchamiel (Alicante), Spain

ICAO - LEMU, IATA -

Data provided by Airmate  

General information

Coordinates: N38°26'26" W0°28'30"
Elevation is 475 feet MSL.
 
Rated:
View ratings:
[VIEW]
View others Airports in Valencia

Operational data

Open for public use
Current time UTC:
Current local time:
Weather at : LEAL - Alicante-Elche ( 19 km )
METAR: LEAL 230830Z 29005KT 9999 FEW060 09/03 Q1017 NOSIG
TAF: TAF LEAL 230500Z 2306/2406 26014KT 9999 FEW030 TX18/2313Z TN07/2306Z TEMPO 2309/2315 30018G30KT BECMG 2317/2319 25007KT
View NOTAMs / SUP AIP / TFR affecting this airport [VIEW]
Communications frequencies: [VIEW]

Runways:

RWY identifierQFULength (ft)Width (ft)SurfaceLDA (ft)
12328175ASPH
30328175ASPH

Airport contact information

Address: Muchamiel (Alicante) Spain

Other aviation service providers

Flight schools

Inaer

Inaer

Satellite view of LEMU